Time;durP1;ratioP1;P1;durP2;ratioP2;P2;SDS_P1;SDS_P2;PMS_P1;PMS_P2;Temp;Humidity;BMP_temperature;BMP_pressure;BME280_temperature;BME280_humidity;BME280_pressure;Samples;Min_cycle;Max_cycle;Signal;HPM_P1;HPM_P2
2023/10/04 00:01:35;;;;;;;8.32;1.73;;;;;;;;;;4993925;28;25066;-73
2023/10/04 00:04:02;;;;;;;7.75;2.20;;;;;;;;;;4978944;28;25051;-72
2023/10/04 00:06:28;;;;;;;4.18;1.40;;;;;;;;;;4986816;28;25103;-71
2023/10/04 00:08:55;;;;;;;12.50;2.47;;;;;;;;;;4982445;28;25098;-67
2023/10/04 00:11:21;;;;;;;8.45;2.53;;;;;;;;;;4983693;28;25072;-71
2023/10/04 00:13:47;;;;;;;8.50;2.42;;;;;;;;;;4986387;28;25104;-69
2023/10/04 00:16:13;;;;;;;7.43;2.25;;;;;;;;;;4983127;28;25090;-71
2023/10/04 00:18:39;;;;;;;9.95;2.75;;;;;;;;;;4982086;28;25080;-69
2023/10/04 00:21:06;;;;;;;8.38;1.85;;;;;;;;;;4985066;28;25106;-70
2023/10/04 00:23:32;;;;;;;10.00;1.95;;;;;;;;;;4981579;28;25078;-71
2023/10/04 00:25:59;;;;;;;7.10;1.95;;;;;;;;;;4987232;28;25110;-71
2023/10/04 00:28:25;;;;;;;4.28;1.58;;;;;;;;;;4979590;28;25120;-71
2023/10/04 00:30:51;;;;;;;5.28;2.28;;;;;;;;;;4973663;28;25050;-73
2023/10/04 00:33:17;;;;;;;11.15;2.25;;;;;;;;;;4994453;28;25054;-69
2023/10/04 00:35:42;;;;;;;8.75;2.90;;;;;;;;;;4972172;28;25064;-70
2023/10/04 00:38:12;;;;;;;6.15;1.88;;;;;;;;;;4971934;28;25082;-70
2023/10/04 00:40:39;;;;;;;9.68;2.90;;;;;;;;;;4983722;28;25136;-70
2023/10/04 00:43:07;;;;;;;11.55;2.50;;;;;;;;;;4983141;28;25162;-76
2023/10/04 00:45:34;;;;;;;12.00;1.92;;;;;;;;;;4985562;28;25080;-71
2023/10/04 00:48:04;;;;;;;8.20;2.50;;;;;;;;;;4984549;28;25102;-71
2023/10/04 00:50:31;;;;;;;8.18;2.35;;;;;;;;;;4990022;28;25070;-71
2023/10/04 00:53:17;;;;;;;6.82;2.45;;;;;;;;;;4993831;28;25163;-72
2023/10/04 00:55:45;;;;;;;10.55;2.33;;;;;;;;;;4988269;28;25047;-72
2023/10/04 00:58:12;;;;;;;6.72;2.85;;;;;;;;;;4985766;28;25077;-73
2023/10/04 01:00:38;;;;;;;8.23;2.42;;;;;;;;;;4982653;28;25065;-69
2023/10/04 01:03:07;;;;;;;11.50;2.45;;;;;;;;;;4978638;28;25129;-70
2023/10/04 01:05:38;;;;;;;9.02;2.53;;;;;;;;;;4967031;28;25069;-69
2023/10/04 01:08:04;;;;;;;7.70;2.58;;;;;;;;;;4984294;28;25071;-71
2023/10/04 01:10:32;;;;;;;11.38;2.50;;;;;;;;;;4993567;28;25074;-70
2023/10/04 01:13:00;;;;;;;14.00;2.75;;;;;;;;;;4967876;28;25101;-74
2023/10/04 01:15:32;;;;;;;10.15;2.53;;;;;;;;;;4982594;28;25065;-71
2023/10/04 01:18:00;;;;;;;12.15;2.58;;;;;;;;;;4978087;28;25060;-70
2023/10/04 01:20:30;;;;;;;14.90;3.08;;;;;;;;;;4985723;28;25122;-73
2023/10/04 01:23:06;;;;;;;7.32;2.90;;;;;;;;;;4986494;28;25093;-68
2023/10/04 01:25:36;;;;;;;10.20;2.80;;;;;;;;;;4983991;28;25057;-71
2023/10/04 01:28:17;;;;;;;9.45;2.63;;;;;;;;;;4990976;28;25040;-71
2023/10/04 01:30:44;;;;;;;13.10;2.22;;;;;;;;;;4985579;28;25107;-72
2023/10/04 01:33:15;;;;;;;5.43;2.25;;;;;;;;;;4987924;28;25131;-71
2023/10/04 01:35:41;;;;;;;8.90;2.40;;;;;;;;;;4984783;28;25071;-72
2023/10/04 01:38:07;;;;;;;10.02;2.75;;;;;;;;;;4979500;28;25140;-72
2023/10/04 01:40:35;;;;;;;7.57;2.35;;;;;;;;;;4989813;28;25109;-71
2023/10/04 01:43:09;;;;;;;9.80;2.83;;;;;;;;;;4985598;28;25050;-74
2023/10/04 01:45:35;;;;;;;9.93;2.58;;;;;;;;;;4982840;28;25153;-71
2023/10/04 01:48:04;;;;;;;7.80;2.47;;;;;;;;;;4987692;28;25080;-73
2023/10/04 01:50:30;;;;;;;6.80;2.28;;;;;;;;;;4978467;28;25133;-72
2023/10/04 01:52:56;;;;;;;16.38;4.07;;;;;;;;;;4981101;28;25049;-71
2023/10/04 01:55:22;;;;;;;8.50;2.50;;;;;;;;;;4984323;28;25057;-70
2023/10/04 01:57:48;;;;;;;10.00;2.67;;;;;;;;;;4963469;28;25160;-71
2023/10/04 02:00:17;;;;;;;12.02;2.88;;;;;;;;;;4987779;28;25160;-71
2023/10/04 02:02:44;;;;;;;12.05;2.65;;;;;;;;;;4992613;28;25060;-71
2023/10/04 02:05:17;;;;;;;6.10;2.33;;;;;;;;;;4968525;28;25099;-71
2023/10/04 02:07:46;;;;;;;9.70;2.60;;;;;;;;;;4988013;28;25049;-71
2023/10/04 02:10:17;;;;;;;7.25;2.28;;;;;;;;;;4986466;28;25105;-71
2023/10/04 02:12:43;;;;;;;7.82;2.20;;;;;;;;;;4978100;28;25049;-71
2023/10/04 02:15:14;;;;;;;14.40;2.83;;;;;;;;;;4978997;28;25145;-71
2023/10/04 02:17:42;;;;;;;7.82;2.60;;;;;;;;;;4990388;28;25110;-70
2023/10/04 02:20:09;;;;;;;13.88;3.72;;;;;;;;;;4983921;28;25130;-69
2023/10/04 02:22:36;;;;;;;13.90;2.20;;;;;;;;;;4981707;28;25050;-70
2023/10/04 02:25:06;;;;;;;12.93;2.55;;;;;;;;;;4979344;28;25059;-71
2023/10/04 02:27:32;;;;;;;10.20;2.45;;;;;;;;;;4985871;28;25059;-69
2023/10/04 02:29:58;;;;;;;13.55;2.67;;;;;;;;;;4982532;28;25168;-70
2023/10/04 02:32:25;;;;;;;10.32;2.38;;;;;;;;;;4985185;28;25056;-72
2023/10/04 02:34:52;;;;;;;11.15;2.58;;;;;;;;;;4960831;28;25095;-67
2023/10/04 02:37:19;;;;;;;10.52;2.58;;;;;;;;;;4986549;28;25130;-70
2023/10/04 02:39:46;;;;;;;11.07;2.53;;;;;;;;;;4982313;28;25171;-69
2023/10/04 02:42:12;;;;;;;7.50;2.08;;;;;;;;;;4984992;28;25062;-74
2023/10/04 02:44:39;;;;;;;9.10;2.42;;;;;;;;;;4975455;28;25181;-72
2023/10/04 02:47:08;;;;;;;11.43;2.85;;;;;;;;;;4974413;28;25143;-69
2023/10/04 02:49:37;;;;;;;4.70;1.90;;;;;;;;;;4975767;28;25130;-68
2023/10/04 02:52:05;;;;;;;6.82;2.20;;;;;;;;;;4990218;28;25073;-70
2023/10/04 02:54:32;;;;;;;10.77;2.95;;;;;;;;;;4972392;28;25078;-69
2023/10/04 02:56:58;;;;;;;11.20;2.50;;;;;;;;;;4991746;28;25077;-68
2023/10/04 02:59:25;;;;;;;6.57;2.53;;;;;;;;;;4984603;28;25078;-71
2023/10/04 03:01:51;;;;;;;11.20;2.95;;;;;;;;;;4959336;28;25055;-73
2023/10/04 03:04:18;;;;;;;8.43;2.53;;;;;;;;;;4987033;28;25071;-69
2023/10/04 03:06:45;;;;;;;12.57;2.95;;;;;;;;;;4983957;28;25095;-69
2023/10/04 03:09:11;;;;;;;10.25;2.95;;;;;;;;;;4979761;28;25048;-70
2023/10/04 03:11:38;;;;;;;8.20;2.22;;;;;;;;;;4990704;28;25138;-68
2023/10/04 03:14:06;;;;;;;6.13;2.17;;;;;;;;;;4985266;28;25057;-70
2023/10/04 03:16:34;;;;;;;11.05;2.95;;;;;;;;;;4988986;28;25061;-73
2023/10/04 03:19:01;;;;;;;10.38;3.40;;;;;;;;;;4987510;28;25100;-70
2023/10/04 03:21:33;;;;;;;13.48;2.33;;;;;;;;;;4983964;28;25124;-72
2023/10/04 03:23:59;;;;;;;;;;;;;;;;;;4981224;28;25096;-70
2023/10/04 03:26:25;;;;;;;6.90;2.63;;;;;;;;;;4984511;28;24096;-71
2023/10/04 03:28:51;;;;;;;10.65;2.50;;;;;;;;;;4981588;28;25059;-72
2023/10/04 03:31:20;;;;;;;9.98;3.05;;;;;;;;;;4979330;28;25058;-69
2023/10/04 03:33:49;;;;;;;11.95;3.03;;;;;;;;;;4986480;28;25121;-72
2023/10/04 03:36:17;;;;;;;6.32;1.85;;;;;;;;;;4987533;28;25161;-71
2023/10/04 03:38:43;;;;;;;8.57;2.47;;;;;;;;;;4988690;28;25071;-71
2023/10/04 03:41:09;;;;;;;12.00;2.72;;;;;;;;;;4984634;28;25065;-70
2023/10/04 03:43:35;;;;;;;9.82;2.53;;;;;;;;;;4986249;28;25084;-73
2023/10/04 03:46:35;;;;;;;7.80;2.50;;;;;;;;;;4984580;28;25109;-72
2023/10/04 03:48:55;;;;;;;;;;;;;;;;;;4981098;28;25139;-71
2023/10/04 03:51:21;;;;;;;6.80;1.95;;;;;;;;;;4982074;28;25104;-71
2023/10/04 03:53:49;;;;;;;14.68;2.70;;;;;;;;;;4980753;28;25104;-69
2023/10/04 03:56:17;;;;;;;14.15;2.45;;;;;;;;;;4978502;28;25100;-70
2023/10/04 03:58:43;;;;;;;11.40;2.72;;;;;;;;;;4965651;28;25145;-70
2023/10/04 04:01:10;;;;;;;10.43;2.70;;;;;;;;;;4989163;28;25064;-71
2023/10/04 04:03:36;;;;;;;7.80;2.65;;;;;;;;;;4985245;28;25048;-69
2023/10/04 04:06:02;;;;;;;12.10;2.58;;;;;;;;;;4980525;28;25109;-72
2023/10/04 04:08:28;;;;;;;10.73;2.75;;;;;;;;;;4984601;28;25086;-73
2023/10/04 04:10:55;;;;;;;13.07;2.50;;;;;;;;;;4988968;28;25107;-71
2023/10/04 04:13:21;;;;;;;13.10;3.35;;;;;;;;;;4971879;28;25049;-71
2023/10/04 04:15:48;;;;;;;14.05;3.15;;;;;;;;;;4985942;28;25118;-72
2023/10/04 04:18:20;;;;;;;10.10;2.63;;;;;;;;;;4986877;28;25092;-73
2023/10/04 04:20:46;;;;;;;9.07;2.30;;;;;;;;;;4992168;28;25072;-71
2023/10/04 04:23:13;;;;;;;13.05;3.03;;;;;;;;;;4980578;28;25066;-72
2023/10/04 04:25:40;;;;;;;11.70;3.20;;;;;;;;;;4981104;28;25093;-71
2023/10/04 04:28:07;;;;;;;12.95;3.05;;;;;;;;;;4977714;28;25192;-70
2023/10/04 04:30:35;;;;;;;12.23;3.58;;;;;;;;;;4969907;28;25073;-71
2023/10/04 04:33:14;;;;;;;14.65;3.80;;;;;;;;;;4977190;28;25136;-69
2023/10/04 04:35:47;;;;;;;15.77;3.30;;;;;;;;;;4991928;28;25149;-73
2023/10/04 04:38:22;;;;;;;8.95;2.95;;;;;;;;;;5001101;28;25081;-75
2023/10/04 04:41:02;;;;;;;11.13;3.15;;;;;;;;;;4976960;28;25049;-75
2023/10/04 04:43:38;;;;;;;19.95;4.03;;;;;;;;;;4986713;28;25060;-72
2023/10/04 04:46:13;;;;;;;14.80;3.33;;;;;;;;;;4992892;28;25060;-72
2023/10/04 04:48:39;;;;;;;8.88;2.88;;;;;;;;;;4987237;28;25100;-72
2023/10/04 04:51:12;;;;;;;17.10;3.72;;;;;;;;;;4989451;28;25072;-69
2023/10/04 04:53:42;;;;;;;16.08;3.90;;;;;;;;;;4992651;28;25063;-72
2023/10/04 04:56:13;;;;;;;13.18;3.92;;;;;;;;;;4993937;28;25145;-71
2023/10/04 04:58:41;;;;;;;15.90;3.77;;;;;;;;;;4987579;28;25066;-71
2023/10/04 05:01:11;;;;;;;16.67;4.47;;;;;;;;;;4975912;28;25063;-73
2023/10/04 05:03:41;;;;;;;15.32;4.35;;;;;;;;;;4993051;28;25128;-75
2023/10/04 05:06:09;;;;;;;13.35;3.60;;;;;;;;;;4989789;28;25067;-72
2023/10/04 05:08:36;;;;;;;13.63;4.20;;;;;;;;;;4986443;28;25078;-73
2023/10/04 05:11:05;;;;;;;10.32;3.95;;;;;;;;;;4991520;28;25180;-73
2023/10/04 05:13:31;;;;;;;13.55;3.50;;;;;;;;;;4983516;28;25058;-74
2023/10/04 05:15:59;;;;;;;15.10;3.50;;;;;;;;;;4970571;28;25064;-71
2023/10/04 05:18:26;;;;;;;13.38;4.55;;;;;;;;;;4996685;28;25143;-72
2023/10/04 05:20:53;;;;;;;18.33;4.75;;;;;;;;;;4994170;28;25078;-70
2023/10/04 05:23:21;;;;;;;11.10;4.13;;;;;;;;;;4999834;28;25060;-71
2023/10/04 05:25:47;;;;;;;11.07;3.88;;;;;;;;;;4993646;28;25156;-71
2023/10/04 05:28:13;;;;;;;15.77;4.05;;;;;;;;;;4993781;28;25064;-72
2023/10/04 05:30:44;;;;;;;14.45;3.92;;;;;;;;;;4991502;28;25167;-72
2023/10/04 05:33:13;;;;;;;17.17;4.22;;;;;;;;;;4996212;28;25066;-72
2023/10/04 05:35:40;;;;;;;16.67;4.53;;;;;;;;;;4993327;28;25069;-73
2023/10/04 05:38:11;;;;;;;14.10;4.15;;;;;;;;;;4981579;28;25080;-72
2023/10/04 05:40:38;;;;;;;14.93;4.28;;;;;;;;;;4983404;28;25101;-73
2023/10/04 05:43:05;;;;;;;17.40;4.75;;;;;;;;;;4981155;28;25069;-71
2023/10/04 05:45:32;;;;;;;13.30;4.05;;;;;;;;;;4970795;28;25098;-74
2023/10/04 05:47:59;;;;;;;13.90;3.72;;;;;;;;;;4987226;28;25161;-72
2023/10/04 05:50:32;;;;;;;21.83;5.63;;;;;;;;;;4985869;28;25055;-72
2023/10/04 05:53:00;;;;;;;16.42;4.60;;;;;;;;;;4983574;28;25081;-70
2023/10/04 05:55:26;;;;;;;20.38;4.80;;;;;;;;;;4984054;28;25081;-70
2023/10/04 05:57:52;;;;;;;15.57;5.03;;;;;;;;;;4984544;28;25072;-71
2023/10/04 06:02:54;;;;;;;12.77;4.85;;;;;;;;;;4991282;28;25139;-75
2023/10/04 06:05:23;;;;;;;20.77;5.32;;;;;;;;;;4986609;28;25064;-72
2023/10/04 06:07:55;;;;;;;14.32;4.03;;;;;;;;;;4975965;28;25048;-72
2023/10/04 06:10:23;;;;;;;24.38;4.72;;;;;;;;;;4967525;28;25070;-69
2023/10/04 06:12:51;;;;;;;12.90;4.20;;;;;;;;;;4965009;28;25062;-70
2023/10/04 06:15:18;;;;;;;19.67;4.93;;;;;;;;;;4992804;28;25099;-69
2023/10/04 06:17:45;;;;;;;15.57;4.18;;;;;;;;;;4983029;28;25166;-70
2023/10/04 06:20:36;;;;;;;13.38;4.25;;;;;;;;;;4981265;28;25068;-71
2023/10/04 06:23:05;;;;;;;18.38;5.22;;;;;;;;;;4978230;28;25150;-71
2023/10/04 06:25:31;;;;;;;14.00;4.00;;;;;;;;;;4984507;28;25069;-71
2023/10/04 06:27:58;;;;;;;21.15;4.65;;;;;;;;;;4965955;28;25072;-70
2023/10/04 06:30:26;;;;;;;18.75;4.40;;;;;;;;;;4963494;28;25126;-71
2023/10/04 06:32:53;;;;;;;19.15;4.95;;;;;;;;;;4986805;28;25085;-75
2023/10/04 06:35:23;;;;;;;18.73;4.70;;;;;;;;;;4981271;28;25093;-73
2023/10/04 06:37:49;;;;;;;14.55;4.05;;;;;;;;;;4986306;28;25092;-72
2023/10/04 06:40:15;;;;;;;11.75;4.03;;;;;;;;;;4984097;28;25155;-71
2023/10/04 06:42:45;;;;;;;17.58;4.90;;;;;;;;;;4986178;28;25154;-72
2023/10/04 06:45:14;;;;;;;11.02;4.32;;;;;;;;;;4980274;28;25124;-73
2023/10/04 06:47:44;;;;;;;14.95;4.57;;;;;;;;;;4965052;28;25054;-73
2023/10/04 06:50:14;;;;;;;16.20;4.57;;;;;;;;;;4983197;28;25073;-72
2023/10/04 06:52:43;;;;;;;15.45;4.65;;;;;;;;;;4976050;28;25051;-72
2023/10/04 06:55:11;;;;;;;19.95;4.53;;;;;;;;;;4982463;28;25100;-74
2023/10/04 06:57:37;;;;;;;23.50;4.47;;;;;;;;;;4977604;28;25078;-72
2023/10/04 07:00:12;;;;;;;21.40;4.55;;;;;;;;;;4982062;28;25071;-74
2023/10/04 07:02:40;;;;;;;14.35;3.78;;;;;;;;;;4983708;28;25091;-72
2023/10/04 07:05:07;;;;;;;20.50;4.25;;;;;;;;;;4965448;28;25060;-72
2023/10/04 07:07:33;;;;;;;14.43;4.63;;;;;;;;;;4963059;28;25082;-73
2023/10/04 07:09:59;;;;;;;20.52;4.47;;;;;;;;;;4981423;28;25163;-71
2023/10/04 07:12:25;;;;;;;18.77;4.10;;;;;;;;;;4969723;28;25130;-73
2023/10/04 07:14:51;;;;;;;14.48;4.07;;;;;;;;;;4986813;28;25050;-71
2023/10/04 07:17:19;;;;;;;19.48;4.80;;;;;;;;;;4991453;28;25119;-71
2023/10/04 07:19:45;;;;;;;14.63;4.28;;;;;;;;;;4965704;28;25079;-72
2023/10/04 07:22:11;;;;;;;14.05;5.13;;;;;;;;;;4967906;28;25062;-71
2023/10/04 07:24:37;;;;;;;19.55;5.10;;;;;;;;;;4983626;28;25060;-72
2023/10/04 07:27:04;;;;;;;24.33;4.60;;;;;;;;;;4987015;28;25068;-72
2023/10/04 07:29:30;;;;;;;16.17;4.57;;;;;;;;;;4982866;28;25068;-71
2023/10/04 07:31:56;;;;;;;16.27;5.07;;;;;;;;;;4992075;28;25066;-71
2023/10/04 07:34:28;;;;;;;13.43;4.10;;;;;;;;;;4985423;28;25070;-72
2023/10/04 07:36:55;;;;;;;11.65;4.55;;;;;;;;;;4981632;28;25085;-71
2023/10/04 07:39:21;;;;;;;18.08;4.78;;;;;;;;;;4983696;28;25080;-73
2023/10/04 07:41:47;;;;;;;13.27;4.28;;;;;;;;;;4989842;28;25074;-72
2023/10/04 07:44:25;;;;;;;15.10;4.18;;;;;;;;;;4980148;28;25081;-72
2023/10/04 07:46:51;;;;;;;14.07;4.95;;;;;;;;;;4980827;28;25175;-74
2023/10/04 07:49:17;;;;;;;13.98;4.65;;;;;;;;;;4986552;28;25107;-72
2023/10/04 07:51:43;;;;;;;14.98;4.78;;;;;;;;;;4988265;28;25080;-74
2023/10/04 07:54:09;;;;;;;16.90;5.18;;;;;;;;;;4982687;28;25126;-72
2023/10/04 07:56:35;;;;;;;13.40;5.05;;;;;;;;;;4989120;28;25062;-72
2023/10/04 07:59:01;;;;;;;23.70;5.88;;;;;;;;;;4981648;28;25109;-72
2023/10/04 08:01:28;;;;;;;19.17;4.57;;;;;;;;;;4987982;28;25046;-72
2023/10/04 08:03:55;;;;;;;14.23;4.40;;;;;;;;;;4966391;28;25063;-70
2023/10/04 08:06:22;;;;;;;18.20;4.30;;;;;;;;;;4960380;28;25082;-71
2023/10/04 08:08:48;;;;;;;14.00;4.18;;;;;;;;;;4979190;28;25054;-72
2023/10/04 08:11:14;;;;;;;18.02;5.60;;;;;;;;;;4988161;28;25100;-72
2023/10/04 08:13:40;;;;;;;19.80;5.65;;;;;;;;;;4970746;28;25060;-71
2023/10/04 08:16:06;;;;;;;18.83;5.70;;;;;;;;;;4967118;28;25125;-71
2023/10/04 08:18:32;;;;;;;15.15;6.03;;;;;;;;;;4981735;28;25061;-72
2023/10/04 08:21:06;;;;;;;15.60;5.90;;;;;;;;;;4965393;28;25079;-71
2023/10/04 08:23:33;;;;;;;21.67;6.15;;;;;;;;;;4978182;28;25087;-71
2023/10/04 08:25:59;;;;;;;17.55;4.72;;;;;;;;;;4978703;28;25068;-70
2023/10/04 08:28:25;;;;;;;15.40;4.95;;;;;;;;;;4973896;28;25150;-71
2023/10/04 08:30:51;;;;;;;15.45;5.18;;;;;;;;;;4968860;28;25125;-72
2023/10/04 08:33:31;;;;;;;18.58;4.63;;;;;;;;;;4971907;28;25053;-73
2023/10/04 08:35:58;;;;;;;12.43;5.28;;;;;;;;;;4980188;28;25063;-73
2023/10/04 08:38:25;;;;;;;21.58;5.85;;;;;;;;;;4967288;28;25040;-72
2023/10/04 08:40:53;;;;;;;16.65;5.57;;;;;;;;;;4987559;28;25079;-73
2023/10/04 08:43:19;;;;;;;20.58;5.82;;;;;;;;;;4985862;28;25084;-73
2023/10/04 08:45:47;;;;;;;13.95;4.97;;;;;;;;;;4982313;28;25058;-73
2023/10/04 08:48:13;;;;;;;23.40;5.80;;;;;;;;;;4982122;28;25143;-73
2023/10/04 08:50:40;;;;;;;15.90;4.88;;;;;;;;;;4962924;28;25072;-73
2023/10/04 08:53:12;;;;;;;19.45;5.55;;;;;;;;;;4988867;28;25080;-71
2023/10/04 08:55:42;;;;;;;12.13;4.90;;;;;;;;;;4997597;28;25070;-73
2023/10/04 08:58:09;;;;;;;19.20;5.78;;;;;;;;;;4985696;28;25065;-73
2023/10/04 09:00:36;;;;;;;19.92;4.97;;;;;;;;;;4965795;28;25107;-72
2023/10/04 09:03:05;;;;;;;13.68;4.65;;;;;;;;;;4972997;28;25076;-71
2023/10/04 09:05:34;;;;;;;17.48;4.80;;;;;;;;;;4985536;28;25097;-72
2023/10/04 09:08:04;;;;;;;14.55;5.20;;;;;;;;;;4992291;28;25082;-73
2023/10/04 09:10:33;;;;;;;21.25;5.15;;;;;;;;;;4976232;28;25154;-72
2023/10/04 09:13:03;;;;;;;18.52;4.80;;;;;;;;;;4987973;28;25048;-72
2023/10/04 09:15:30;;;;;;;16.27;5.38;;;;;;;;;;4962229;28;25144;-73
2023/10/04 09:17:57;;;;;;;17.95;4.85;;;;;;;;;;4969793;28;25061;-72
2023/10/04 09:20:29;;;;;;;15.10;5.07;;;;;;;;;;4981637;28;25081;-70
2023/10/04 09:22:56;;;;;;;18.08;4.88;;;;;;;;;;4971948;28;25070;-75
2023/10/04 09:25:22;;;;;;;14.75;4.90;;;;;;;;;;4969652;28;25090;-71
2023/10/04 09:27:55;;;;;;;15.90;5.05;;;;;;;;;;4970754;28;25063;-72
2023/10/04 09:30:22;;;;;;;15.02;5.43;;;;;;;;;;4988255;28;25052;-70
2023/10/04 09:32:49;;;;;;;13.10;4.63;;;;;;;;;;4995652;28;25055;-74
2023/10/04 09:35:18;;;;;;;19.17;5.25;;;;;;;;;;4986153;28;25055;-75
2023/10/04 09:37:45;;;;;;;12.05;4.38;;;;;;;;;;4972762;28;25058;-72
2023/10/04 09:40:12;;;;;;;13.85;5.60;;;;;;;;;;4990693;28;25072;-74
2023/10/04 09:43:04;;;;;;;15.35;3.95;;;;;;;;;;4968447;28;25133;-74
2023/10/04 09:45:31;;;;;;;;;;;;;;;;;;4979176;28;25062;-72
2023/10/04 09:48:03;;;;;;;19.80;5.07;;;;;;;;;;4973523;28;24065;-72
2023/10/04 09:50:29;;;;;;;15.73;4.68;;;;;;;;;;4972597;28;25140;-74
2023/10/04 09:52:55;;;;;;;22.48;5.28;;;;;;;;;;4970976;28;25084;-75
2023/10/04 09:55:22;;;;;;;13.25;3.72;;;;;;;;;;4983885;28;25080;-72
2023/10/04 09:57:48;;;;;;;11.63;4.00;;;;;;;;;;4967671;28;25062;-71
2023/10/04 10:00:18;;;;;;;14.98;4.35;;;;;;;;;;4990201;28;25091;-70
2023/10/04 10:02:48;;;;;;;13.60;4.03;;;;;;;;;;4987429;28;25127;-73
2023/10/04 10:05:44;;;;;;;13.20;4.80;;;;;;;;;;4988837;28;25068;-73
2023/10/04 10:08:13;;;;;;;23.33;4.35;;;;;;;;;;4971537;28;25057;-73
2023/10/04 10:10:41;;;;;;;11.18;4.05;;;;;;;;;;4982770;28;25342;-74
2023/10/04 10:13:08;;;;;;;20.70;5.28;;;;;;;;;;4982451;28;25127;-71
2023/10/04 10:15:34;;;;;;;12.30;4.05;;;;;;;;;;4977105;28;25061;-74
2023/10/04 10:18:01;;;;;;;21.00;5.57;;;;;;;;;;4980809;28;25054;-72
2023/10/04 10:20:27;;;;;;;15.60;4.53;;;;;;;;;;4992546;28;25128;-71
2023/10/04 10:22:59;;;;;;;13.23;4.78;;;;;;;;;;4977930;28;25069;-72
2023/10/04 10:25:25;;;;;;;19.20;4.90;;;;;;;;;;4991306;28;25076;-72
2023/10/04 10:27:58;;;;;;;16.42;4.85;;;;;;;;;;4994647;28;25161;-73
2023/10/04 10:30:25;;;;;;;14.57;4.38;;;;;;;;;;4991308;28;25044;-71
2023/10/04 10:32:56;;;;;;;16.48;5.00;;;;;;;;;;4996368;28;25136;-72
2023/10/04 10:35:41;;;;;;;16.73;3.80;;;;;;;;;;4997241;28;25100;-72
2023/10/04 10:38:26;;;;;;;17.10;5.40;;;;;;;;;;5000740;28;25072;-74
2023/10/04 10:40:52;;;;;;;13.10;4.55;;;;;;;;;;4997214;28;25088;-71
2023/10/04 10:43:18;;;;;;;16.35;4.95;;;;;;;;;;4987064;28;25075;-72
2023/10/04 10:45:44;;;;;;;13.10;4.35;;;;;;;;;;4976935;28;25099;-72
2023/10/04 10:48:14;;;;;;;15.05;4.13;;;;;;;;;;4996166;28;25083;-73
2023/10/04 10:50:43;;;;;;;19.02;4.85;;;;;;;;;;5000480;28;25079;-72
2023/10/04 10:53:10;;;;;;;16.52;4.85;;;;;;;;;;4994073;28;25051;-73
2023/10/04 10:55:40;;;;;;;10.30;3.60;;;;;;;;;;4987501;28;25113;-72
2023/10/04 10:58:10;;;;;;;16.73;4.75;;;;;;;;;;4995929;28;25104;-73
2023/10/04 11:00:37;;;;;;;13.85;4.30;;;;;;;;;;4979853;28;25082;-75
2023/10/04 11:03:09;;;;;;;17.60;4.28;;;;;;;;;;4979525;28;25080;-72
2023/10/04 11:05:35;;;;;;;11.00;3.85;;;;;;;;;;4996253;28;25113;-72
2023/10/04 11:08:06;;;;;;;8.75;3.83;;;;;;;;;;4995077;28;25070;-74
2023/10/04 11:10:34;;;;;;;13.80;4.70;;;;;;;;;;4996469;28;25072;-72
2023/10/04 11:13:08;;;;;;;18.98;4.97;;;;;;;;;;5005267;28;25076;-71
2023/10/04 11:15:36;;;;;;;11.63;3.15;;;;;;;;;;4987152;28;25045;-72
2023/10/04 11:18:06;;;;;;;10.55;3.35;;;;;;;;;;5011894;28;25071;-75
2023/10/04 11:20:35;;;;;;;11.52;3.92;;;;;;;;;;5009886;28;25065;-77
2023/10/04 11:23:01;;;;;;;18.77;3.33;;;;;;;;;;5025663;28;25044;-76
2023/10/04 11:25:27;;;;;;;11.18;3.00;;;;;;;;;;5000770;28;25055;-73
2023/10/04 11:27:54;;;;;;;12.68;3.70;;;;;;;;;;4985062;28;25107;-72
2023/10/04 11:30:23;;;;;;;14.23;4.05;;;;;;;;;;5011991;28;25082;-73
2023/10/04 11:32:50;;;;;;;12.05;3.30;;;;;;;;;;5007496;28;25081;-72
2023/10/04 11:35:18;;;;;;;12.20;3.63;;;;;;;;;;4990923;28;25074;-75
2023/10/04 11:37:54;;;;;;;10.70;3.63;;;;;;;;;;5011875;28;25104;-73
2023/10/04 11:40:27;;;;;;;10.50;3.40;;;;;;;;;;5005117;28;25057;-76
2023/10/04 11:43:00;;;;;;;11.98;3.30;;;;;;;;;;4993928;28;25052;-72
2023/10/04 11:45:27;;;;;;;15.82;3.75;;;;;;;;;;4997775;28;25063;-72
2023/10/04 11:47:59;;;;;;;12.82;3.85;;;;;;;;;;4982936;28;25094;-73
2023/10/04 11:50:26;;;;;;;11.00;3.33;;;;;;;;;;4999241;28;25066;-72
2023/10/04 11:52:56;;;;;;;13.00;4.07;;;;;;;;;;4994576;28;25131;-73
2023/10/04 11:55:25;;;;;;;13.73;3.15;;;;;;;;;;4976760;28;25056;-73
2023/10/04 11:57:53;;;;;;;13.85;4.10;;;;;;;;;;4993854;28;25138;-72
2023/10/04 12:00:21;;;;;;;16.00;4.60;;;;;;;;;;4971381;28;25106;-75
2023/10/04 12:02:48;;;;;;;18.45;4.13;;;;;;;;;;4983873;28;25090;-73
2023/10/04 12:05:14;;;;;;;10.75;3.28;;;;;;;;;;4993600;28;25121;-73
2023/10/04 12:07:40;;;;;;;13.65;3.92;;;;;;;;;;4997680;28;25091;-73
2023/10/04 12:10:07;;;;;;;13.40;3.90;;;;;;;;;;4978078;28;25067;-74
2023/10/04 12:12:33;;;;;;;20.50;3.72;;;;;;;;;;4993664;28;25059;-72
2023/10/04 12:14:59;;;;;;;10.80;3.60;;;;;;;;;;4988989;28;25103;-74
2023/10/04 12:17:25;;;;;;;10.63;3.00;;;;;;;;;;5010691;28;25069;-73
2023/10/04 12:19:51;;;;;;;14.18;3.75;;;;;;;;;;5010581;28;25098;-73
2023/10/04 12:22:19;;;;;;;10.13;2.97;;;;;;;;;;4997702;28;25067;-74
2023/10/04 12:24:47;;;;;;;10.77;3.75;;;;;;;;;;4979771;28;25055;-72
2023/10/04 12:27:16;;;;;;;7.28;2.53;;;;;;;;;;4995669;28;25083;-74
2023/10/04 12:29:42;;;;;;;9.85;2.50;;;;;;;;;;4991292;28;25065;-71
2023/10/04 12:32:08;;;;;;;9.15;2.40;;;;;;;;;;4979239;28;25097;-72
2023/10/04 12:34:35;;;;;;;18.42;4.30;;;;;;;;;;5000321;28;25065;-74
2023/10/04 12:37:01;;;;;;;11.32;3.00;;;;;;;;;;4990698;28;25094;-72
2023/10/04 12:39:27;;;;;;;8.60;2.08;;;;;;;;;;4994793;28;25136;-71
2023/10/04 12:41:55;;;;;;;8.50;1.88;;;;;;;;;;4970527;28;25074;-73
2023/10/04 12:44:23;;;;;;;8.20;2.63;;;;;;;;;;4982647;28;25107;-74
2023/10/04 12:46:49;;;;;;;11.25;2.40;;;;;;;;;;4970039;28;25056;-75
2023/10/04 12:49:15;;;;;;;4.07;1.75;;;;;;;;;;4973999;28;25046;-73
2023/10/04 12:51:42;;;;;;;12.60;2.58;;;;;;;;;;4968525;28;25047;-71
2023/10/04 12:54:09;;;;;;;12.65;2.15;;;;;;;;;;4995515;28;25105;-73
2023/10/04 12:56:36;;;;;;;8.50;2.78;;;;;;;;;;4988011;28;25057;-72
2023/10/04 12:59:03;;;;;;;10.27;1.95;;;;;;;;;;4968444;28;25061;-74
2023/10/04 13:01:30;;;;;;;6.03;1.88;;;;;;;;;;4974142;28;25136;-74
2023/10/04 13:03:57;;;;;;;6.13;2.00;;;;;;;;;;4989086;28;25061;-71
2023/10/04 13:06:23;;;;;;;5.10;1.88;;;;;;;;;;4993328;28;25069;-72
2023/10/04 13:08:49;;;;;;;9.07;1.98;;;;;;;;;;4967029;28;25066;-76
2023/10/04 13:11:17;;;;;;;10.40;2.10;;;;;;;;;;4992002;28;25058;-73
2023/10/04 13:13:44;;;;;;;6.05;2.10;;;;;;;;;;4992357;28;25062;-73
2023/10/04 13:16:11;;;;;;;10.27;2.80;;;;;;;;;;4997096;28;25087;-73
2023/10/04 13:18:37;;;;;;;6.18;1.50;;;;;;;;;;4981522;28;25082;-72
2023/10/04 13:21:08;;;;;;;8.15;1.50;;;;;;;;;;4994678;28;25121;-73
2023/10/04 13:23:34;;;;;;;7.57;2.53;;;;;;;;;;4977371;28;25092;-72
2023/10/04 13:26:00;;;;;;;7.70;1.77;;;;;;;;;;4972185;28;25075;-72
2023/10/04 13:28:28;;;;;;;6.93;1.90;;;;;;;;;;4980297;28;25134;-73
2023/10/04 13:30:57;;;;;;;11.18;2.17;;;;;;;;;;4980283;28;25065;-71
2023/10/04 13:33:24;;;;;;;8.20;2.00;;;;;;;;;;4995715;28;25052;-69
2023/10/04 13:35:53;;;;;;;7.53;1.77;;;;;;;;;;5003196;28;25079;-72
2023/10/04 13:38:19;;;;;;;12.95;2.38;;;;;;;;;;4994994;28;25060;-69
2023/10/04 13:40:49;;;;;;;10.45;2.33;;;;;;;;;;4985224;28;25071;-73
2023/10/04 13:43:15;;;;;;;11.55;2.20;;;;;;;;;;4983146;28;25152;-71
2023/10/04 13:45:43;;;;;;;9.20;2.72;;;;;;;;;;4982378;28;25073;-70
2023/10/04 13:48:09;;;;;;;9.75;1.83;;;;;;;;;;4986970;28;25058;-73
2023/10/04 13:50:40;;;;;;;10.32;1.90;;;;;;;;;;4979936;28;25078;-72
2023/10/04 13:53:18;;;;;;;7.95;1.70;;;;;;;;;;4976542;28;25101;-72
2023/10/04 13:55:45;;;;;;;6.65;2.08;;;;;;;;;;4985561;28;25067;-70
2023/10/04 13:58:17;;;;;;;10.60;2.42;;;;;;;;;;4977235;28;25091;-71
2023/10/04 14:00:50;;;;;;;7.88;2.00;;;;;;;;;;4988519;28;25049;-71
2023/10/04 14:03:17;;;;;;;8.15;2.00;;;;;;;;;;4962157;28;25056;-72
2023/10/04 14:05:43;;;;;;;7.93;1.92;;;;;;;;;;4966167;28;25062;-71
2023/10/04 14:08:09;;;;;;;10.80;1.98;;;;;;;;;;4974747;28;25080;-72
2023/10/04 14:10:35;;;;;;;9.85;2.78;;;;;;;;;;4973962;28;25091;-72
2023/10/04 14:13:02;;;;;;;9.75;2.17;;;;;;;;;;4977755;28;25046;-70
2023/10/04 14:15:29;;;;;;;6.35;2.03;;;;;;;;;;4973810;28;25071;-71
2023/10/04 14:17:56;;;;;;;8.85;2.25;;;;;;;;;;4950842;28;25061;-72
2023/10/04 14:20:27;;;;;;;8.13;2.38;;;;;;;;;;4984246;28;25048;-71
2023/10/04 14:22:56;;;;;;;8.23;1.52;;;;;;;;;;4977993;28;25052;-72
2023/10/04 14:25:22;;;;;;;7.07;1.30;;;;;;;;;;4991472;28;25060;-72
2023/10/04 14:27:48;;;;;;;7.72;1.65;;;;;;;;;;4976318;28;25072;-73
2023/10/04 14:30:17;;;;;;;7.22;1.40;;;;;;;;;;4961976;28;25059;-71
2023/10/04 14:32:44;;;;;;;5.97;1.50;;;;;;;;;;4966094;28;25063;-71
2023/10/04 14:35:10;;;;;;;5.20;0.98;;;;;;;;;;4976896;28;25159;-71
2023/10/04 14:37:39;;;;;;;9.02;1.83;;;;;;;;;;4990651;28;25062;-72
2023/10/04 14:40:14;;;;;;;7.65;1.25;;;;;;;;;;4973495;28;25100;-73
2023/10/04 14:42:40;;;;;;;7.90;2.03;;;;;;;;;;4961574;28;25100;-73